Time;durP1;ratioP1;P1;durP2;ratioP2;P2;SDS_P1;SDS_P2;PMS_P1;PMS_P2;Temp;Humidity;BMP_temperature;BMP_pressure;BME280_temperature;BME280_humidity;BME280_pressure;Samples;Min_cycle;Max_cycle;Signal;HPM_P1;HPM_P2
2023/01/07 09:27:36;;;;;;;4.80;3.93;;;;;;;14.35;39.79;95226.59;2577832;54;20254;-77
2023/01/07 09:30:06;;;;;;;3.47;3.27;;;;;;;14.22;39.59;95229.09;2615062;47;20156;-77
2023/01/07 09:32:35;;;;;;;3.83;3.53;;;;;;;13.60;40.21;95225.19;2617760;54;20157;-81
2023/01/07 09:35:04;;;;;;;2.73;2.50;;;;;;;13.85;40.76;95221.66;2619117;54;20164;-83
2023/01/07 09:37:33;;;;;;;4.87;3.70;;;;;;;14.02;41.54;95180.13;2620000;54;20164;-85
2023/01/07 09:40:02;;;;;;;4.53;3.53;;;;;;;14.43;43.28;95192.63;2620233;47;20801;-85
2023/01/07 09:42:44;;;;;;;4.77;2.87;;;;;;;14.60;41.06;95199.50;2620687;46;20672;-84
2023/01/07 09:45:18;;;;;;;5.97;3.50;;;;;;;14.50;40.03;95197.09;2619432;39;20330;-83
2023/01/07 09:47:52;;;;;;;3.67;2.93;;;;;;;14.23;41.09;95179.25;2618262;54;20251;-83
2023/01/07 09:50:42;;;;;;;3.73;3.43;;;;;;;14.50;42.74;95179.97;2618813;47;20149;-82
2023/01/07 09:53:17;;;;;;;3.20;2.93;;;;;;;14.73;40.78;95184.13;2618645;54;20680;-84
2023/01/07 09:55:46;;;;;;;5.87;3.10;;;;;;;14.81;38.97;95173.66;2618182;54;20164;-74
2023/01/07 09:58:20;;;;;;;5.73;3.97;;;;;;;13.45;42.60;95172.81;2618745;54;20236;-84
2023/01/07 10:00:58;;;;;;;6.13;4.23;;;;;;;13.74;40.70;95157.28;2619361;47;20140;-84
2023/01/07 10:03:39;;;;;;;5.20;3.33;;;;;;;13.71;40.33;95161.44;2601935;54;20230;-84
2023/01/07 10:06:13;;;;;;;3.13;2.93;;;;;;;13.94;42.22;95164.94;2618764;39;20542;-80
2023/01/07 10:08:55;;;;;;;3.67;2.90;;;;;;;14.01;39.95;95158.00;2618262;47;20169;-78
2023/01/07 10:11:36;;;;;;;3.60;3.37;;;;;;;14.23;41.71;95150.78;2618012;47;20377;-78
2023/01/07 10:14:31;;;;;;;5.40;3.97;;;;;;;14.36;43.07;95139.69;2617556;47;20246;-83
2023/01/07 10:17:08;;;;;;;6.03;3.57;;;;;;;14.65;41.94;95147.59;2617986;54;20163;-78
2023/01/07 10:19:46;;;;;;;5.67;2.90;;;;;;;14.69;42.15;95136.28;2617229;54;20167;-78
2023/01/07 10:22:24;;;;;;;3.83;3.50;;;;;;;14.57;39.17;95148.13;2618029;54;20141;-81
2023/01/07 10:24:58;;;;;;;3.40;2.77;;;;;;;14.70;42.19;95139.88;2618221;47;20156;-79
2023/01/07 10:27:32;;;;;;;3.87;3.43;;;;;;;14.73;42.96;95125.00;2617900;47;20175;-85
2023/01/07 10:30:06;;;;;;;4.50;3.87;;;;;;;14.64;39.36;95120.47;2618052;47;20164;-75
2023/01/07 10:32:37;;;;;;;5.43;3.73;;;;;;;15.06;40.13;95126.44;2618097;54;20176;-81
2023/01/07 10:35:19;;;;;;;3.53;3.33;;;;;;;14.87;39.60;95113.91;2617866;47;20145;-83
2023/01/07 10:37:48;;;;;;;4.73;4.33;;;;;;;14.82;39.68;95115.22;2617873;47;20156;-84
2023/01/07 10:40:31;;;;;;;12.13;3.77;;;;;;;13.87;39.92;95039.47;2618049;54;20191;-83
2023/01/07 10:43:09;;;;;;;3.67;3.27;;;;;;;13.84;41.43;95040.81;2617538;54;20161;-81
2023/01/07 10:46:10;;;;;;;3.97;3.63;;;;;;;14.27;43.24;95081.06;2617710;54;20269;-78
2023/01/07 10:49:06;;;;;;;5.30;3.97;;;;;;;14.21;42.50;95088.03;2617428;54;20141;-78
2023/01/07 10:51:52;;;;;;;4.20;3.90;;;;;;;14.34;41.88;95080.56;2617802;47;20152;-81
2023/01/07 10:54:35;;;;;;;6.20;4.37;;;;;;;14.19;44.51;95087.28;2618309;47;20149;-81
2023/01/07 10:57:11;;;;;;;3.67;3.20;;;;;;;14.00;41.29;95048.34;2619591;47;20163;-83
2023/01/07 10:59:40;;;;;;;6.23;4.17;;;;;;;14.38;40.26;95086.31;2619746;47;20145;-81
2023/01/07 11:02:19;;;;;;;5.17;4.30;;;;;;;14.37;40.87;95084.16;2619613;54;20319;-80
2023/01/07 11:04:49;;;;;;;3.67;3.37;;;;;;;14.28;39.50;95056.88;2618253;54;20188;-81
2023/01/07 11:07:30;;;;;;;3.90;3.60;;;;;;;14.36;43.94;95054.94;2617798;47;20203;-81
2023/01/07 11:10:04;;;;;;;9.25;5.97;;;;;;;14.53;39.36;95056.81;2619882;39;20791;-84
2023/01/07 11:12:39;;;;;;;4.93;4.40;;;;;;;14.62;40.92;95069.13;2619129;47;20137;-85
2023/01/07 11:15:16;;;;;;;4.30;3.90;;;;;;;14.66;39.18;95062.78;2619340;54;20148;-81
2023/01/07 11:17:51;;;;;;;6.60;4.73;;;;;;;14.33;40.34;95053.44;2618360;54;20163;-81
2023/01/07 11:20:45;;;;;;;5.30;4.87;;;;;;;14.20;42.69;95046.72;2619049;54;20160;-84
2023/01/07 11:23:27;;;;;;;7.47;5.13;;;;;;;14.43;41.65;95038.75;2619494;31;20634;-79
2023/01/07 11:26:06;;;;;;;3.43;2.50;;;;;;;14.67;40.61;95047.13;2621588;47;20179;-84
2023/01/07 11:28:36;;;;;;;4.57;3.87;;;;;;;13.88;40.29;95040.94;2618615;54;20255;-79
2023/01/07 11:31:04;;;;;;;3.50;3.20;;;;;;;14.14;40.66;95038.03;2619463;50;20167;-80
2023/01/07 11:33:40;;;;;;;6.67;3.83;;;;;;;13.72;40.95;95036.94;2618765;54;20153;-77
2023/01/07 11:36:10;;;;;;;4.43;3.17;;;;;;;13.95;41.59;95033.25;2620719;47;20152;-83
2023/01/07 11:38:41;;;;;;;3.37;3.10;;;;;;;13.79;41.46;95035.72;2621367;47;20241;-83
2023/01/07 11:41:22;;;;;;;3.47;3.17;;;;;;;13.93;41.61;95033.22;2624278;54;20690;-82
2023/01/07 11:43:53;;;;;;;6.17;4.50;;;;;;;14.09;43.26;95041.44;2620664;47;20490;-82
2023/01/07 11:46:23;;;;;;;4.17;3.77;;;;;;;13.80;41.86;95020.78;2621449;47;20211;-84
2023/01/07 11:48:59;;;;;;;3.10;2.80;;;;;;;13.88;44.78;95001.06;2620798;47;20160;-84
2023/01/07 11:51:28;;;;;;;3.87;3.30;;;;;;;13.97;41.02;95010.53;2621673;47;20155;-81
2023/01/07 11:54:00;;;;;;;5.23;3.60;;;;;;;13.78;42.29;95006.50;2622411;46;20153;-83
2023/01/07 11:56:32;;;;;;;6.53;4.60;;;;;;;13.85;41.40;94970.38;2621919;31;20771;-79
2023/01/07 11:59:27;;;;;;;3.67;3.40;;;;;;;14.27;44.28;95004.13;2620164;54;20195;-78
2023/01/07 12:21:15;;;;;;;4.35;3.95;;;;;;;14.62;43.52;94951.53;2572109;54;21324;-78
2023/01/07 12:24:00;;;;;;;6.87;3.67;;;;;;;14.57;42.31;94959.28;2617447;47;20157;-76
2023/01/07 12:26:38;;;;;;;5.10;4.70;;;;;;;14.58;41.36;94960.72;2617516;54;20264;-78
2023/01/07 12:29:19;;;;;;;3.90;3.20;;;;;;;14.89;41.57;94965.69;2618284;47;20153;-78
2023/01/07 12:32:03;;;;;;;4.70;4.20;;;;;;;14.47;40.25;94956.19;2618208;47;20157;-78
2023/01/07 12:34:45;;;;;;;4.13;3.60;;;;;;;14.65;40.08;94950.88;2618313;47;20137;-78
2023/01/07 12:37:30;;;;;;;3.33;3.13;;;;;;;14.70;40.15;94963.09;2618117;54;20150;-78
2023/01/07 12:40:08;;;;;;;4.53;3.30;;;;;;;14.39;40.91;94959.56;2617812;50;20160;-78
2023/01/07 12:42:41;;;;;;;3.43;2.77;;;;;;;14.82;43.25;94954.81;2618107;39;20631;-79
2023/01/07 13:16:15;;;;;;;4.13;3.73;;;;;;;13.93;42.82;94953.50;2604304;54;20200;-79
2023/01/07 17:46:01;;;;;;;9.80;6.57;;;;;;;10.51;47.11;94969.16;2618049;39;20561;-82
2023/01/07 17:48:30;;;;;;;8.83;7.03;;;;;;;9.92;46.41;94995.16;2617925;47;20165;-84
2023/01/07 17:51:00;;;;;;;5.53;4.70;;;;;;;9.12;46.89;94985.50;2618095;39;20570;-75
2023/01/07 17:53:31;;;;;;;9.70;4.90;;;;;;;7.65;50.38;94983.00;2618227;54;20161;-82
2023/01/07 17:56:02;;;;;;;11.73;9.33;;;;;;;7.33;52.21;94987.03;2618379;47;20160;-77
2023/01/07 17:58:35;;;;;;;7.33;5.53;;;;;;;6.64;53.81;94998.34;2617570;54;20177;-77
2023/01/07 18:01:07;;;;;;;9.20;7.60;;;;;;;5.58;56.86;94996.75;2617863;54;20183;-77
2023/01/07 18:03:36;;;;;;;5.90;5.50;;;;;;;5.84;58.68;94980.63;2617898;39;20539;-74
2023/01/07 18:06:05;;;;;;;3.63;2.90;;;;;;;6.31;57.47;94998.69;2620062;54;20204;-78
2023/01/07 18:08:34;;;;;;;3.40;3.20;;;;;;;7.55;55.83;94996.56;2616784;47;20195;-75
2023/01/07 18:13:46;;;;;;;5.73;5.33;;;;;;;10.22;53.80;94978.66;2617078;39;20624;-79
2023/01/07 18:16:16;;;;;;;4.17;3.87;;;;;;;11.12;51.75;94994.03;2617176;54;20165;-75
2023/01/07 18:18:44;;;;;;;12.33;7.07;;;;;;;11.23;49.30;94971.03;2616727;47;20173;-79
2023/01/07 18:21:13;;;;;;;14.00;8.40;;;;;;;11.56;50.38;94989.91;2617143;54;20156;-78
2023/01/07 18:23:42;;;;;;;18.13;11.17;;;;;;;11.70;48.89;95003.84;2617657;54;20152;-78
2023/01/07 18:26:11;;;;;;;14.67;8.83;;;;;;;11.88;50.90;94992.41;2613052;39;20560;-76
2023/01/07 18:28:40;;;;;;;7.47;6.57;;;;;;;12.19;49.11;94997.66;2615370;39;20757;-77
2023/01/07 18:31:12;;;;;;;13.80;8.00;;;;;;;12.26;49.15;95001.41;2615698;47;20742;-78
2023/01/07 18:33:41;;;;;;;7.63;5.10;;;;;;;12.61;50.61;94998.25;2615708;46;20161;-75
2023/01/07 18:36:11;;;;;;;9.93;5.83;;;;;;;12.66;48.39;94982.03;2614691;54;20184;-77
2023/01/07 18:38:40;;;;;;;11.50;5.17;;;;;;;12.85;45.25;94992.53;2614971;39;20591;-81
2023/01/07 18:41:08;;;;;;;13.43;8.50;;;;;;;12.34;42.04;95007.34;2615930;54;20248;-79
2023/01/07 18:43:37;;;;;;;7.20;6.60;;;;;;;10.91;43.95;94998.25;2615787;47;20216;-79
2023/01/07 18:46:12;;;;;;;7.93;6.53;;;;;;;9.66;46.42;95008.22;2615108;47;20165;-78
2023/01/07 18:48:41;;;;;;;7.53;6.13;;;;;;;8.67;49.28;94994.09;2616052;54;20168;-83
2023/01/07 18:51:12;;;;;;;4.40;4.07;;;;;;;8.18;50.82;94938.25;2616896;47;20164;-87
2023/01/07 18:53:41;;;;;;;8.50;5.73;;;;;;;7.78;50.54;94925.09;2621141;46;20715;-87
2023/01/07 18:56:11;;;;;;;7.93;7.10;;;;;;;8.49;49.66;94993.25;2619806;54;20165;-83
2023/01/07 18:58:40;;;;;;;23.10;19.00;;;;;;;7.74;51.50;94959.47;2623926;54;20161;-83
2023/01/07 19:01:12;;;;;;;12.43;6.83;;;;;;;8.93;54.74;94996.63;2620901;47;20180;-83
2023/01/07 19:03:41;;;;;;;4.10;3.90;;;;;;;10.03;52.52;94987.78;2618687;54;20153;-85
2023/01/07 19:06:11;;;;;;;5.13;4.17;;;;;;;10.48;48.82;94990.28;2619171;54;20141;-82
2023/01/07 19:08:40;;;;;;;7.53;5.20;;;;;;;10.85;47.10;95000.84;2619243;47;20172;-83
2023/01/07 19:11:09;;;;;;;17.87;5.43;;;;;;;10.96;46.99;94971.50;2624469;47;20164;-85
2023/01/07 19:13:38;;;;;;;5.17;4.73;;;;;;;11.42;44.78;94997.19;2621436;47;20156;-81
2023/01/07 19:16:08;;;;;;;8.90;5.93;;;;;;;11.79;49.20;94985.72;2618671;54;20161;-82
2023/01/07 19:18:40;;;;;;;11.03;6.17;;;;;;;11.93;46.19;94991.13;2617193;54;20169;-81
2023/01/07 19:21:10;;;;;;;9.77;4.97;;;;;;;11.75;50.44;94994.81;2619089;47;20690;-81
2023/01/07 19:23:38;;;;;;;18.17;8.87;;;;;;;11.30;43.01;94986.16;2619987;47;20156;-82
2023/01/07 19:26:09;;;;;;;15.43;8.90;;;;;;;10.42;44.59;94993.59;2619592;47;20157;-81
2023/01/07 19:28:37;;;;;;;16.33;10.80;;;;;;;10.27;45.22;94974.59;2619032;47;20169;-83
2023/01/07 19:31:08;;;;;;;11.33;5.23;;;;;;;8.75;45.89;94911.81;2618839;54;20156;-80
2023/01/07 19:33:39;;;;;;;11.20;4.03;;;;;;;7.03;51.68;95000.31;2617804;47;20181;-80
2023/01/07 19:36:11;;;;;;;2.37;2.27;;;;;;;5.80;54.79;95005.69;2618701;54;20722;-81
2023/01/07 19:38:41;;;;;;;3.07;2.40;;;;;;;4.91;60.05;94979.63;2618362;54;20144;-80
2023/01/07 19:41:11;;;;;;;10.67;3.90;;;;;;;6.32;57.15;94997.34;2618408;54;20167;-79
2023/01/07 19:43:40;;;;;;;3.93;3.73;;;;;;;6.70;53.24;94956.41;2618858;46;20185;-81
2023/01/07 19:46:11;;;;;;;3.73;3.07;;;;;;;5.74;54.53;94963.91;2617808;47;20240;-81
2023/01/07 19:48:42;;;;;;;6.10;4.57;;;;;;;5.74;55.07;95006.06;2619570;39;20564;-79
2023/01/07 19:51:12;;;;;;;5.03;4.60;;;;;;;6.00;58.83;95004.03;2619070;47;20203;-81
2023/01/07 19:53:41;;;;;;;3.90;3.60;;;;;;;6.28;56.56;94988.72;2620034;47;20161;-80
2023/01/07 19:56:12;;;;;;;4.33;3.93;;;;;;;7.12;57.81;94990.91;2618518;47;20164;-81
2023/01/07 19:58:42;;;;;;;3.80;3.03;;;;;;;8.87;51.52;94992.19;2618805;47;20686;-81
2023/01/07 20:01:13;;;;;;;5.40;4.93;;;;;;;9.44;49.09;94951.47;2618473;47;20180;-81
2023/01/07 20:03:46;;;;;;;12.77;5.47;;;;;;;9.76;48.72;94952.78;2618809;47;20805;-81
2023/01/07 20:06:17;;;;;;;7.50;4.53;;;;;;;10.62;47.22;94983.03;2618598;47;20168;-82
2023/01/07 20:08:47;;;;;;;5.57;3.70;;;;;;;9.68;45.75;94980.75;2618877;54;20145;-82
2023/01/07 20:11:16;;;;;;;3.23;3.03;;;;;;;9.22;44.90;94943.53;2618258;47;20726;-82
2023/01/07 20:13:47;;;;;;;3.80;3.33;;;;;;;7.90;49.14;94990.53;2618593;47;20157;-82
2023/01/07 20:16:20;;;;;;;3.27;2.87;;;;;;;7.07;51.47;94998.44;2618482;47;20179;-81
2023/01/07 20:18:53;;;;;;;10.23;4.97;;;;;;;6.92;53.44;95001.16;2618263;46;20161;-82
2023/01/07 20:21:24;;;;;;;9.83;3.83;;;;;;;6.35;54.57;94967.25;2619758;54;20153;-80
2023/01/07 20:23:53;;;;;;;3.93;3.40;;;;;;;6.53;54.33;95012.50;2618020;54;20172;-80
2023/01/07 20:26:23;;;;;;;3.90;3.70;;;;;;;6.64;55.23;95011.69;2617865;47;20157;-80
2023/01/07 20:28:52;;;;;;;2.50;2.30;;;;;;;6.75;54.87;95016.47;2617565;47;20675;-80
2023/01/07 20:31:23;;;;;;;3.27;2.93;;;;;;;7.65;54.27;95007.63;2617593;47;20149;-80
2023/01/07 20:33:56;;;;;;;3.97;3.63;;;;;;;7.95;51.16;94969.59;2617712;47;20252;-80
2023/01/07 20:36:27;;;;;;;17.40;7.00;;;;;;;9.05;51.51;95017.66;2617510;54;20181;-80
2023/01/07 20:38:56;;;;;;;5.27;4.47;;;;;;;8.89;50.51;95003.53;2617617;47;20174;-80
2023/01/07 20:41:26;;;;;;;3.93;3.67;;;;;;;8.59;49.89;95009.94;2616946;47;20172;-80
2023/01/07 20:43:58;;;;;;;7.63;4.13;;;;;;;9.49;48.76;94987.00;2617122;54;20180;-82
2023/01/07 20:46:27;;;;;;;7.93;4.23;;;;;;;10.12;49.19;95015.00;2617014;47;20153;-81
2023/01/07 20:48:59;;;;;;;5.67;3.07;;;;;;;10.32;46.10;94979.03;2616960;54;20177;-79
2023/01/07 20:51:28;;;;;;;6.17;3.67;;;;;;;11.08;45.98;95000.25;2617437;54;20192;-80
2023/01/07 20:53:57;;;;;;;8.17;5.43;;;;;;;11.65;45.66;95024.94;2617395;54;20798;-81
2023/01/07 20:56:30;;;;;;;6.80;5.33;;;;;;;11.87;45.46;95011.53;2618027;54;20160;-82
2023/01/07 20:59:00;;;;;;;5.20;4.73;;;;;;;12.10;44.10;95001.63;2617163;54;20165;-80
2023/01/07 21:01:29;;;;;;;5.90;4.80;;;;;;;12.25;44.05;95025.53;2613142;54;20153;-80
2023/01/07 21:04:01;;;;;;;4.03;3.73;;;;;;;12.25;42.59;95017.00;2613078;46;20332;-81
2023/01/07 21:06:30;;;;;;;4.27;3.97;;;;;;;12.30;43.87;95015.75;2614186;47;20194;-81
2023/01/07 21:08:58;;;;;;;3.70;3.37;;;;;;;12.26;42.66;95024.88;2613788;54;21000;-80
2023/01/07 21:11:27;;;;;;;5.40;4.13;;;;;;;11.44;41.95;95026.38;2614370;39;20852;-79
2023/01/07 21:13:56;;;;;;;10.97;4.77;;;;;;;10.72;44.02;95025.16;2613663;54;20181;-79
2023/01/07 21:16:26;;;;;;;7.67;4.00;;;;;;;9.60;45.93;94972.66;2613715;47;20165;-80
2023/01/07 21:18:54;;;;;;;4.20;3.80;;;;;;;9.98;47.81;95029.31;2613909;54;20149;-80
2023/01/07 21:21:26;;;;;;;4.33;4.03;;;;;;;10.83;46.90;95021.31;2613576;47;20180;-80
2023/01/07 21:23:56;;;;;;;4.83;4.17;;;;;;;11.29;45.90;95019.47;2614562;39;20562;-80
2023/01/07 21:26:25;;;;;;;7.63;4.73;;;;;;;11.27;45.74;95008.03;2613491;47;20161;-80
2023/01/07 21:28:55;;;;;;;15.20;4.87;;;;;;;11.19;44.08;95024.06;2614113;54;20164;-80
2023/01/07 21:31:24;;;;;;;10.13;6.97;;;;;;;11.19;43.78;95026.88;2613758;47;20176;-80
2023/01/07 21:33:55;;;;;;;13.20;5.43;;;;;;;8.98;46.10;95021.59;2614265;47;20157;-78
2023/01/07 21:36:28;;;;;;;7.10;5.50;;;;;;;8.28;49.70;95014.16;2613905;54;20164;-80
2023/01/07 21:38:59;;;;;;;8.70;6.33;;;;;;;9.33;50.43;95017.44;2613993;47;20157;-80
2023/01/07 21:41:28;;;;;;;7.50;5.17;;;;;;;10.24;48.06;95001.41;2615638;47;20172;-81
2023/01/07 21:43:58;;;;;;;6.63;4.23;;;;;;;10.78;45.52;95011.25;2615416;47;20292;-81
2023/01/07 21:46:27;;;;;;;12.17;6.03;;;;;;;11.03;45.36;95019.25;2614042;54;20766;-80
2023/01/07 21:48:57;;;;;;;11.57;7.67;;;;;;;11.45;47.72;95016.47;2613995;47;20363;-80
2023/01/07 21:51:29;;;;;;;11.13;6.83;;;;;;;11.55;42.84;95011.13;2613768;54;20160;-80
2023/01/07 21:53:59;;;;;;;9.20;7.13;;;;;;;9.90;43.33;94989.41;2614044;47;20157;-82
2023/01/07 21:56:31;;;;;;;11.33;6.20;;;;;;;10.37;49.23;95005.41;2613905;54;20188;-80
2023/01/07 21:59:00;;;;;;;9.37;4.70;;;;;;;8.61;45.73;95016.41;2614610;47;20164;-79
2023/01/07 22:01:30;;;;;;;10.00;5.37;;;;;;;7.29;49.99;95012.19;2614472;47;20200;-80
2023/01/07 22:04:00;;;;;;;3.77;3.50;;;;;;;7.07;51.68;95009.72;2614452;54;21124;-79
2023/01/07 22:06:34;;;;;;;6.87;4.27;;;;;;;7.66;51.25;94990.06;2615095;47;20165;-79
2023/01/07 22:09:07;;;;;;;2.63;2.43;;;;;;;8.03;51.91;95006.66;2605169;39;20635;-81
2023/01/07 22:11:40;;;;;;;6.37;5.77;;;;;;;7.32;50.84;95010.94;2615085;54;20157;-82
2023/01/07 22:14:09;;;;;;;5.40;4.90;;;;;;;6.77;53.21;95000.44;2614845;47;20172;-80
2023/01/07 22:16:38;;;;;;;4.83;4.43;;;;;;;7.82;50.78;95010.59;2614652;54;20164;-80
2023/01/07 22:19:06;;;;;;;7.60;5.90;;;;;;;7.73;50.15;95005.94;2615067;47;20272;-80
2023/01/07 22:21:38;;;;;;;4.83;4.53;;;;;;;7.21;51.06;95003.34;2614711;54;20165;-80
2023/01/07 22:24:08;;;;;;;3.80;3.67;;;;;;;6.83;53.72;95004.94;2615521;39;20666;-80
2023/01/07 22:26:37;;;;;;;8.17;4.53;;;;;;;7.31;54.29;95012.28;2614908;47;20169;-81
2023/01/07 22:29:09;;;;;;;3.53;3.23;;;;;;;7.64;52.91;95000.53;2615086;47;20201;-81
2023/01/07 22:31:39;;;;;;;5.97;4.57;;;;;;;7.79;51.67;94980.13;2615341;39;20556;-79
2023/01/07 22:34:09;;;;;;;4.30;4.00;;;;;;;7.69;50.25;94988.09;2615683;47;20169;-83
2023/01/07 22:36:45;;;;;;;8.17;4.13;;;;;;;6.53;52.54;94981.56;2614653;39;20625;-83
2023/01/07 22:39:19;;;;;;;3.93;3.50;;;;;;;5.69;53.52;94987.53;2615002;39;20631;-81
2023/01/07 22:41:49;;;;;;;14.90;9.30;;;;;;;4.85;57.22;94993.28;2618263;54;20192;-81
2023/01/07 22:44:22;;;;;;;9.87;7.03;;;;;;;3.44;59.99;94898.50;2618468;54;20188;-82
2023/01/07 22:46:53;;;;;;;2.83;2.50;;;;;;;4.06;60.26;94973.78;2618017;46;20161;-81
2023/01/07 22:49:24;;;;;;;3.13;2.93;;;;;;;4.46;59.84;94986.72;2617104;47;20276;-80
2023/01/07 22:51:56;;;;;;;1.90;1.90;;;;;;;4.45;58.95;94960.75;2618384;47;20164;-80
2023/01/07 22:54:26;;;;;;;3.23;3.03;;;;;;;4.33;60.84;94976.13;2617927;47;20224;-80
2023/01/07 22:56:55;;;;;;;2.37;2.23;;;;;;;4.53;60.43;94968.91;2617918;39;20555;-80
2023/01/07 22:59:24;;;;;;;5.05;4.15;;;;;;;5.15;59.35;94985.91;2617502;47;21299;-81
2023/01/07 23:01:53;;;;;;;4.70;3.73;;;;;;;5.95;59.08;94986.22;2618175;54;20186;-80
2023/01/07 23:04:21;;;;;;;1.90;1.83;;;;;;;7.26;56.51;94977.53;2619907;54;20157;-84
2023/01/07 23:06:51;;;;;;;4.03;3.73;;;;;;;8.49;50.82;94977.06;2618402;47;20164;-83
2023/01/07 23:09:22;;;;;;;3.57;2.23;;;;;;;9.30;49.70;94965.00;2617400;47;20164;-80
2023/01/07 23:11:53;;;;;;;6.40;4.43;;;;;;;9.91;48.33;94968.94;2617465;47;20157;-80
2023/01/07 23:14:24;;;;;;;4.60;4.27;;;;;;;10.43;50.13;94980.88;2617989;47;20157;-80
2023/01/07 23:16:54;;;;;;;5.13;4.77;;;;;;;10.79;47.90;94972.31;2617706;54;20672;-80
2023/01/07 23:19:24;;;;;;;4.73;3.23;;;;;;;9.57;43.61;94936.44;2617678;54;20175;-80
2023/01/07 23:21:55;;;;;;;5.50;4.97;;;;;;;9.04;45.68;94954.03;2616996;47;20716;-82
2023/01/07 23:24:26;;;;;;;3.97;3.73;;;;;;;10.44;51.63;94976.69;2617883;47;20280;-80
2023/01/07 23:26:56;;;;;;;6.20;5.03;;;;;;;10.96;48.03;94977.16;2617820;54;20169;-80
2023/01/07 23:29:25;;;;;;;6.57;4.47;;;;;;;11.17;45.58;94959.50;2617344;47;20175;-80
2023/01/07 23:31:53;;;;;;;6.87;5.70;;;;;;;11.13;45.74;94931.00;2617486;47;20193;-79
2023/01/07 23:34:22;;;;;;;6.33;4.83;;;;;;;10.74;42.96;94976.34;2617422;47;20161;-79
2023/01/07 23:36:51;;;;;;;8.13;5.27;;;;;;;10.44;48.67;94971.00;2618676;47;20707;-80
2023/01/07 23:39:19;;;;;;;4.00;3.50;;;;;;;11.25;45.93;94973.94;2618660;54;20172;-79
2023/01/07 23:41:51;;;;;;;8.47;4.63;;;;;;;10.99;42.72;94950.34;2619122;54;20172;-80
2023/01/07 23:44:19;;;;;;;6.37;4.97;;;;;;;10.15;43.74;94972.00;2618572;47;20192;-80
2023/01/07 23:46:48;;;;;;;5.67;4.60;;;;;;;10.46;43.47;94968.25;2619486;47;20157;-80
2023/01/07 23:49:17;;;;;;;3.87;3.57;;;;;;;8.38;46.23;94966.69;2617909;47;20172;-81
2023/01/07 23:51:45;;;;;;;4.63;4.27;;;;;;;7.08;50.20;94956.94;2617848;54;20220;-80
2023/01/07 23:54:15;;;;;;;5.97;4.03;;;;;;;7.74;51.24;94959.47;2617514;47;20168;-79
2023/01/07 23:56:44;;;;;;;17.43;4.80;;;;;;;8.14;49.93;94974.75;2616980;54;20160;-79
2023/01/07 23:59:15;;;;;;;6.43;5.27;;;;;;;7.65;50.41;94971.72;2617154;54;20160;-81
